Time;durP1;ratioP1;P1;durP2;ratioP2;P2;SDS_P1;SDS_P2;PMS_P1;PMS_P2;Temp;Humidity;BMP_temperature;BMP_pressure;BME280_temperature;BME280_humidity;BME280_pressure;Samples;Min_cycle;Max_cycle;Signal;HPM_P1;HPM_P2
2023/06/05 00:01:11;;;;;;;10.15;6.95;;;12.10;99.90;;;;;;5031389;28;20052;-71
2023/06/05 00:03:37;;;;;;;8.45;5.53;;;12.10;99.90;;;;;;5031412;28;20037;-71
2023/06/05 00:06:03;;;;;;;8.15;6.13;;;12.20;99.90;;;;;;5030539;28;20048;-71
2023/06/05 00:08:29;;;;;;;8.18;6.32;;;;;;;;;;5031059;28;20044;-71
2023/06/05 00:10:55;;;;;;;8.93;6.18;;;;;;;;;;5031552;28;20045;-71
2023/06/05 00:13:21;;;;;;;13.60;7.90;;;;;;;;;;5031150;28;20046;-71
2023/06/05 00:15:47;;;;;;;9.85;5.65;;;;;;;;;;5030582;28;20060;-71
2023/06/05 00:18:14;;;;;;;9.07;5.97;;;12.20;99.90;;;;;;5031128;28;20048;-70
2023/06/05 00:20:40;;;;;;;7.85;5.35;;;12.20;99.90;;;;;;5031194;28;20052;-71
2023/06/05 00:23:06;;;;;;;7.28;5.32;;;12.40;99.90;;;;;;5031053;28;20409;-71
2023/06/05 00:25:32;;;;;;;8.40;5.80;;;;;;;;;;5030734;28;20444;-71
2023/06/05 00:27:58;;;;;;;7.20;5.82;;;;;;;;;;5030691;28;20037;-71
2023/06/05 00:30:24;;;;;;;9.82;5.35;;;;;;;;;;5030881;28;20041;-72
2023/06/05 00:32:50;;;;;;;7.53;6.07;;;;;;;;;;5031046;28;20052;-71
2023/06/05 00:35:16;;;;;;;6.40;4.88;;;;;;;;;;5030598;28;20187;-70
2023/06/05 00:37:41;;;;;;;8.85;5.60;;;12.50;99.90;;;;;;5030677;28;20130;-71
2023/06/05 00:40:07;;;;;;;7.05;5.10;;;12.40;99.90;;;;;;5030760;28;20119;-71
2023/06/05 00:42:33;;;;;;;10.15;5.43;;;;;;;;;;5030526;28;20077;-71
2023/06/05 00:44:59;;;;;;;9.13;5.18;;;;;;;;;;5030201;28;20479;-71
2023/06/05 00:47:25;;;;;;;6.63;5.18;;;12.50;99.90;;;;;;5030715;28;20049;-71
2023/06/05 00:49:50;;;;;;;7.10;5.45;;;12.60;99.90;;;;;;5030915;28;20041;-71
2023/06/05 00:52:16;;;;;;;8.45;5.43;;;12.50;99.90;;;;;;5030520;28;20116;-70
2023/06/05 00:54:43;;;;;;;7.93;5.60;;;12.40;99.90;;;;;;5031500;28;20030;-71
2023/06/05 00:57:09;;;;;;;10.30;5.53;;;12.60;99.90;;;;;;5013934;28;20041;-71
2023/06/05 00:59:36;;;;;;;9.50;5.07;;;12.60;99.90;;;;;;5030451;28;20045;-71
2023/06/05 01:02:02;;;;;;;6.60;4.57;;;12.60;99.90;;;;;;5030253;28;20033;-71
2023/06/05 01:04:28;;;;;;;9.65;5.85;;;12.70;99.90;;;;;;5029912;28;20042;-71
2023/06/05 01:06:57;;;;;;;9.93;5.18;;;12.60;99.90;;;;;;5047150;28;20034;-70
2023/06/05 01:09:24;;;;;;;7.28;5.25;;;12.60;99.90;;;;;;5030662;28;20440;-71
2023/06/05 01:12:03;;;;;;;6.63;4.95;;;12.70;99.90;;;;;;5013810;28;20099;-71
2023/06/05 01:14:32;;;;;;;6.95;4.78;;;12.70;99.90;;;;;;5029890;28;20075;-71
2023/06/05 01:17:00;;;;;;;7.20;5.43;;;12.40;99.90;;;;;;5030566;28;20046;-70
2023/06/05 01:19:28;;;;;;;8.43;4.45;;;12.70;99.90;;;;;;5032006;28;20092;-71
2023/06/05 01:21:58;;;;;;;10.40;4.60;;;12.60;99.90;;;;;;5013831;28;20048;-71
2023/06/05 01:24:27;;;;;;;6.30;4.45;;;12.60;99.90;;;;;;5029482;28;20053;-71
2023/06/05 01:27:00;;;;;;;6.90;4.82;;;12.60;99.90;;;;;;5030098;28;20168;-71
2023/06/05 01:29:54;;;;;;;6.20;4.95;;;12.70;99.90;;;;;;5030378;28;20048;-71
2023/06/05 01:32:36;;;;;;;10.07;5.25;;;12.70;99.90;;;;;;5030479;28;20042;-71
2023/06/05 01:35:10;;;;;;;5.80;4.55;;;12.50;99.90;;;;;;5029777;28;20037;-70
2023/06/05 01:37:40;;;;;;;6.05;4.72;;;12.50;99.90;;;;;;5029859;28;20136;-71
2023/06/05 01:40:12;;;;;;;10.82;4.82;;;12.60;99.90;;;;;;5030179;28;20116;-71
2023/06/05 01:42:39;;;;;;;6.65;4.03;;;12.50;99.90;;;;;;5029900;28;20041;-71
2023/06/05 01:45:08;;;;;;;5.07;3.63;;;12.40;99.90;;;;;;5029472;28;20033;-71
2023/06/05 01:47:38;;;;;;;6.13;4.53;;;12.40;99.90;;;;;;5013683;28;20508;-71
2023/06/05 01:50:05;;;;;;;6.35;3.90;;;12.60;99.90;;;;;;5030068;28;20120;-71
2023/06/05 01:52:31;;;;;;;4.32;3.40;;;;;;;;;;5013426;28;20652;-71
2023/06/05 01:55:01;;;;;;;5.43;3.88;;;;;;;;;;5029561;28;20041;-71
2023/06/05 01:57:33;;;;;;;3.95;3.33;;;12.50;99.90;;;;;;5029681;28;20046;-71
2023/06/05 02:00:13;;;;;;;4.80;3.00;;;12.70;99.90;;;;;;5046518;28;20053;-69
2023/06/05 02:02:43;;;;;;;8.20;3.30;;;12.50;99.90;;;;;;5029861;28;20045;-71
2023/06/05 02:05:10;;;;;;;6.05;3.45;;;12.70;99.90;;;;;;5032399;28;20041;-70
2023/06/05 02:07:39;;;;;;;7.30;3.63;;;12.60;99.90;;;;;;5017478;28;20037;-71
2023/06/05 02:10:06;;;;;;;4.75;3.13;;;12.60;99.90;;;;;;5035759;28;20034;-70
2023/06/05 02:12:33;;;;;;;7.13;3.65;;;;;;;;;;5033414;28;20083;-71
2023/06/05 02:15:01;;;;;;;5.72;3.50;;;12.50;99.90;;;;;;5035752;28;20038;-71
2023/06/05 02:17:27;;;;;;;6.88;3.63;;;12.50;99.90;;;;;;5039562;28;20591;-71
2023/06/05 02:19:53;;;;;;;5.53;4.05;;;;;;;;;;5023207;28;20034;-71
2023/06/05 02:22:19;;;;;;;5.93;3.83;;;12.70;99.90;;;;;;5035725;28;20600;-70
2023/06/05 02:24:44;;;;;;;6.45;4.72;;;12.40;99.90;;;;;;5032986;28;20080;-70
2023/06/05 02:27:10;;;;;;;9.25;4.65;;;12.30;99.90;;;;;;5033249;28;20103;-71
2023/06/05 02:29:39;;;;;;;6.07;4.65;;;12.50;99.90;;;;;;5033306;28;20044;-71
2023/06/05 02:32:06;;;;;;;7.45;4.65;;;12.50;99.90;;;;;;5033366;28;20120;-70
2023/06/05 02:34:32;;;;;;;7.50;4.35;;;12.60;99.90;;;;;;5036671;28;20102;-71
2023/06/05 02:36:58;;;;;;;7.65;4.93;;;12.40;99.90;;;;;;5032821;28;20505;-71
2023/06/05 02:39:25;;;;;;;6.80;4.93;;;12.40;99.90;;;;;;5032922;28;20048;-71
2023/06/05 02:41:51;;;;;;;7.22;3.78;;;12.60;99.90;;;;;;5033008;28;20127;-71
2023/06/05 02:44:17;;;;;;;6.53;5.07;;;12.50;99.90;;;;;;5032358;28;20041;-71
2023/06/05 02:46:42;;;;;;;5.43;4.22;;;12.50;99.90;;;;;;5032784;28;20033;-70
2023/06/05 02:49:08;;;;;;;6.70;4.50;;;;;;;;;;5032876;28;20562;-71
2023/06/05 02:51:35;;;;;;;8.18;5.32;;;;;;;;;;5032776;28;20052;-72
2023/06/05 02:54:01;;;;;;;7.82;4.93;;;;;;;;;;5032097;28;20048;-71
2023/06/05 02:56:27;;;;;;;7.45;4.90;;;;;;;;;;5032540;28;20088;-71
2023/06/05 02:58:53;;;;;;;9.20;4.90;;;12.50;99.90;;;;;;5032403;28;20612;-69
2023/06/05 03:01:20;;;;;;;7.10;5.55;;;12.50;99.90;;;;;;5016321;28;20523;-71
2023/06/05 03:03:48;;;;;;;9.38;5.10;;;12.60;99.90;;;;;;5032052;28;20528;-70
2023/06/05 03:06:17;;;;;;;8.25;4.57;;;12.60;99.90;;;;;;5032370;28;20128;-71
2023/06/05 03:08:43;;;;;;;7.57;5.28;;;12.70;99.90;;;;;;5032324;28;20033;-71
2023/06/05 03:11:08;;;;;;;7.72;5.63;;;12.70;99.90;;;;;;5032667;28;20034;-71
2023/06/05 03:13:34;;;;;;;8.82;6.15;;;12.60;99.90;;;;;;5032340;28;20049;-71
2023/06/05 03:16:03;;;;;;;6.38;4.60;;;12.50;99.90;;;;;;5031518;28;20037;-71
2023/06/05 03:18:29;;;;;;;7.55;4.53;;;12.60;99.90;;;;;;5015965;28;20143;-71
2023/06/05 03:20:55;;;;;;;7.07;4.40;;;12.60;99.90;;;;;;5032226;28;20076;-70
2023/06/05 03:23:28;;;;;;;6.68;4.30;;;12.60;99.90;;;;;;5032054;28;20497;-71
2023/06/05 03:25:54;;;;;;;10.30;5.13;;;12.60;99.90;;;;;;5031700;28;20037;-71
2023/06/05 03:28:22;;;;;;;5.47;4.18;;;12.70;99.90;;;;;;5031919;28;20042;-71
2023/06/05 03:30:48;;;;;;;4.57;3.65;;;12.50;99.90;;;;;;5032022;28;20473;-71
2023/06/05 03:33:17;;;;;;;6.50;4.20;;;12.50;99.90;;;;;;5032051;28;20493;-71
2023/06/05 03:35:45;;;;;;;5.75;3.65;;;;;;;;;;5031406;28;20551;-71
2023/06/05 03:38:11;;;;;;;6.00;3.85;;;;;;;;;;5031684;28;20049;-71
2023/06/05 03:40:39;;;;;;;5.47;3.95;;;;;;;;;;5031792;28;20523;-71
2023/06/05 03:43:05;;;;;;;8.35;4.40;;;12.50;99.90;;;;;;5031629;28;20056;-70
2023/06/05 03:45:31;;;;;;;6.57;3.92;;;;;;;;;;5031391;28;20045;-71
2023/06/05 03:47:59;;;;;;;10.48;4.38;;;;;;;;;;5031475;28;20037;-71
2023/06/05 03:50:28;;;;;;;6.80;3.83;;;;;;;;;;5031660;28;20175;-71
2023/06/05 03:52:54;;;;;;;4.63;3.25;;;12.70;99.90;;;;;;5031587;28;20045;-71
2023/06/05 03:55:20;;;;;;;5.35;3.50;;;12.70;99.90;;;;;;5031122;28;20049;-71
2023/06/05 03:57:47;;;;;;;6.10;4.07;;;12.80;99.90;;;;;;5032235;28;20088;-71
2023/06/05 04:00:17;;;;;;;6.00;4.00;;;;;;;;;;5015080;28;20041;-71
2023/06/05 04:02:42;;;;;;;4.97;3.90;;;12.60;99.90;;;;;;5031177;28;20587;-71
2023/06/05 04:05:12;;;;;;;7.45;3.70;;;12.60;99.90;;;;;;5031079;28;20084;-70
2023/06/05 04:07:38;;;;;;;5.35;4.07;;;12.60;99.90;;;;;;5055947;22;20110;-71
2023/06/05 04:10:04;;;;;;;5.63;4.10;;;;;;;;;;5031207;28;20041;-71
2023/06/05 04:12:30;;;;;;;7.50;4.03;;;;;;;;;;5031167;28;20037;-71
2023/06/05 04:14:58;;;;;;;7.80;3.85;;;;;;;;;;5031998;28;20080;-70
2023/06/05 04:17:23;;;;;;;7.60;3.67;;;12.50;99.90;;;;;;5030904;28;20045;-71
2023/06/05 04:19:49;;;;;;;5.53;3.67;;;12.70;99.90;;;;;;5014715;28;20033;-71
2023/06/05 04:22:15;;;;;;;6.78;3.15;;;;;;;;;;5030893;28;20064;-71
2023/06/05 04:24:41;;;;;;;4.57;3.42;;;12.80;99.90;;;;;;5030438;28;20061;-71
2023/06/05 04:27:08;;;;;;;4.93;3.33;;;12.80;99.90;;;;;;5030109;28;20088;-71
2023/06/05 04:29:34;;;;;;;5.07;3.67;;;12.80;99.90;;;;;;5030958;28;20044;-71
2023/06/05 04:32:00;;;;;;;6.45;3.70;;;13.00;99.90;;;;;;5031495;28;20038;-71
2023/06/05 04:34:25;;;;;;;5.93;3.25;;;13.00;99.90;;;;;;5030367;28;20045;-71
2023/06/05 04:36:51;;;;;;;5.18;3.70;;;12.90;99.90;;;;;;5030806;28;20034;-71
2023/06/05 04:39:18;;;;;;;5.68;3.85;;;;;;;;;;5031174;28;20088;-71
2023/06/05 04:41:45;;;;;;;6.93;4.05;;;12.90;99.90;;;;;;5030782;28;20045;-71
2023/06/05 04:44:16;;;;;;;6.35;4.13;;;12.70;99.90;;;;;;5013676;28;20042;-70
2023/06/05 04:46:43;;;;;;;4.95;3.90;;;12.90;99.90;;;;;;5030605;28;20037;-71
2023/06/05 04:49:11;;;;;;;7.35;4.70;;;12.90;99.90;;;;;;5014196;28;20144;-70
2023/06/05 04:51:36;;;;;;;7.38;4.47;;;12.80;99.90;;;;;;5046630;28;20128;-71
2023/06/05 04:54:03;;;;;;;5.60;4.10;;;13.10;99.90;;;;;;5030047;28;20124;-71
2023/06/05 04:56:29;;;;;;;7.20;4.90;;;13.10;99.90;;;;;;5030481;28;20049;-71
2023/06/05 04:58:55;;;;;;;7.97;4.07;;;;;;;;;;5030218;28;20041;-71
2023/06/05 05:01:21;;;;;;;7.70;4.32;;;;;;;;;;5030467;28;20487;-72
2023/06/05 05:03:48;;;;;;;5.03;3.95;;;;;;;;;;5029743;28;20500;-70
2023/06/05 05:06:17;;;;;;;7.18;4.40;;;13.00;99.90;;;;;;5018622;28;20094;-71
2023/06/05 05:08:48;;;;;;;4.80;3.38;;;13.30;99.90;;;;;;5050260;28;20033;-71
2023/06/05 05:11:14;;;;;;;5.65;3.35;;;13.20;99.90;;;;;;5050281;28;20037;-71
2023/06/05 05:13:40;;;;;;;5.03;3.45;;;;;;;;;;5050679;28;20103;-71
2023/06/05 05:16:07;;;;;;;6.25;3.42;;;13.40;99.90;;;;;;5050043;28;20053;-71
2023/06/05 05:18:40;;;;;;;5.35;2.70;;;13.20;99.90;;;;;;5050614;28;20041;-71
2023/06/05 05:21:06;;;;;;;6.10;3.05;;;;;;;;;;5050401;28;20068;-71
2023/06/05 05:23:33;;;;;;;3.95;2.55;;;;;;;;;;5050218;28;20041;-71
2023/06/05 05:26:00;;;;;;;7.10;2.75;;;13.40;99.90;;;;;;5049700;28;20033;-71
2023/06/05 05:28:26;;;;;;;4.95;2.97;;;;;;;;;;5049846;28;20045;-70
2023/06/05 05:30:52;;;;;;;3.58;2.63;;;;;;;;;;5050488;28;20116;-70
2023/06/05 05:33:18;;;;;;;4.70;2.47;;;;;;;;;;5033564;28;20049;-71
2023/06/05 05:35:45;;;;;;;2.72;2.50;;;;;;;;;;5033207;28;20102;-72
2023/06/05 05:38:11;;;;;;;6.30;2.55;;;;;;;;;;5051636;28;20048;-70
2023/06/05 05:40:37;;;;;;;3.20;2.20;;;;;;;;;;5054010;28;20131;-70
2023/06/05 05:43:03;;;;;;;6.65;2.28;;;;;;;;;;5053796;28;20523;-70
2023/06/05 05:45:29;;;;;;;2.83;1.90;;;;;;;;;;5036900;28;20036;-71
2023/06/05 05:47:55;;;;;;;4.35;2.53;;;;;;;;;;5053466;28;20404;-70
2023/06/05 05:50:21;;;;;;;4.57;2.00;;;;;;;;;;5037310;28;20048;-71
2023/06/05 05:52:47;;;;;;;2.58;2.00;;;;;;;;;;5033554;28;20045;-71
2023/06/05 05:55:13;;;;;;;3.80;2.30;;;;;;;;;;5033427;28;20041;-71
2023/06/05 05:57:39;;;;;;;3.60;2.17;;;;;;;;;;5036675;28;20128;-71
2023/06/05 06:00:12;;;;;;;3.45;2.13;;;13.60;99.90;;;;;;5053379;28;20055;-71
2023/06/05 06:02:39;;;;;;;2.28;1.90;;;13.90;99.90;;;;;;5053325;28;20053;-71
2023/06/05 06:05:05;;;;;;;3.17;1.80;;;13.80;99.90;;;;;;5046330;28;20029;-71
2023/06/05 06:07:31;;;;;;;4.68;1.98;;;;;;;;;;5033540;28;20083;-71
2023/06/05 06:09:58;;;;;;;2.50;1.95;;;13.50;99.90;;;;;;5052526;28;20045;-71
2023/06/05 06:12:23;;;;;;;2.60;1.80;;;13.60;99.90;;;;;;5053380;28;20040;-71
2023/06/05 06:14:49;;;;;;;4.00;2.28;;;;;;;;;;5053003;28;20033;-71
2023/06/05 06:17:15;;;;;;;4.03;2.53;;;;;;;;;;5053389;28;20447;-71
2023/06/05 06:19:42;;;;;;;4.10;2.00;;;13.80;99.90;;;;;;5036907;28;20175;-72
2023/06/05 06:22:11;;;;;;;2.47;1.98;;;;;;;;;;5030735;28;20767;-72
2023/06/05 06:24:42;;;;;;;2.10;1.80;;;14.10;99.90;;;;;;5036810;28;20053;-72
2023/06/05 06:27:10;;;;;;;2.65;2.10;;;14.30;99.90;;;;;;5033014;28;20549;-72
2023/06/05 06:29:46;;;;;;;2.45;2.25;;;14.60;99.90;;;;;;5024409;28;20057;-72
2023/06/05 06:32:17;;;;;;;2.30;1.95;;;14.50;99.90;;;;;;5038419;28;20080;-72
2023/06/05 06:34:44;;;;;;;2.10;1.67;;;;;;;;;;5019940;28;20041;-72
2023/06/05 06:37:11;;;;;;;4.35;2.00;;;;;;;;;;5023827;28;20049;-71
2023/06/05 06:39:38;;;;;;;2.88;1.83;;;;;;;;;;5027752;28;20049;-72
2023/06/05 06:42:04;;;;;;;3.13;2.03;;;;;;;;;;5033363;28;20049;-71
2023/06/05 06:44:30;;;;;;;2.67;1.73;;;;;;;;;;5020682;28;20045;-72
2023/06/05 06:46:56;;;;;;;2.70;2.00;;;;;;;;;;5040553;28;20520;-72
2023/06/05 06:49:22;;;;;;;2.60;2.00;;;;;;;;;;5038969;28;20041;-72
2023/06/05 06:51:48;;;;;;;3.72;1.65;;;;;;;;;;5039516;28;20101;-71
2023/06/05 06:54:14;;;;;;;2.83;2.15;;;;;;;;;;5035093;28;20505;-72
2023/06/05 06:56:40;;;;;;;4.30;2.10;;;;;;;;;;5040247;28;20049;-72
2023/06/05 06:59:15;;;;;;;3.33;2.15;;;14.30;99.90;;;;;;5035330;28;20055;-71
2023/06/05 07:01:46;;;;;;;3.50;2.35;;;14.20;99.90;;;;;;5036141;28;20037;-72
2023/06/05 07:04:20;;;;;;;2.78;2.20;;;14.30;99.90;;;;;;5022580;28;20045;-72
2023/06/05 07:06:45;;;;;;;;;;;14.50;99.90;;;;;;5039735;28;20056;-72
2023/06/05 07:09:11;;;;;;;4.40;2.17;;;15.10;99.90;;;;;;5048948;28;19921;-71
2023/06/05 07:11:37;;;;;;;6.43;2.05;;;;;;;;;;5019318;28;20041;-72
2023/06/05 07:14:03;;;;;;;2.08;1.88;;;;;;;;;;5035766;28;20176;-72
2023/06/05 07:16:29;;;;;;;3.38;2.72;;;;;;;;;;5027883;28;20136;-72
2023/06/05 07:18:55;;;;;;;5.03;2.00;;;;;;;;;;5024240;28;20574;-73
2023/06/05 07:21:22;;;;;;;3.83;2.30;;;15.30;99.90;;;;;;5033541;28;20398;-72
2023/06/05 07:23:51;;;;;;;5.70;2.45;;;15.90;99.90;;;;;;5041507;28;20041;-73
2023/06/05 07:26:17;;;;;;;2.25;2.00;;;16.10;99.90;;;;;;5014124;28;20038;-73
2023/06/05 07:28:43;;;;;;;5.18;2.30;;;;;;;;;;5027267;28;20447;-70
2023/06/05 07:31:10;;;;;;;2.63;2.10;;;;;;;;;;5045434;28;20168;-70
2023/06/05 07:33:36;;;;;;;4.47;2.70;;;16.70;99.90;;;;;;5043138;28;20097;-71
2023/06/05 07:36:01;;;;;;;4.00;3.22;;;16.30;99.90;;;;;;5049641;28;20124;-72
2023/06/05 07:38:29;;;;;;;7.35;2.78;;;15.60;99.90;;;;;;5051175;28;20522;-72
2023/06/05 07:40:58;;;;;;;3.08;2.67;;;15.80;99.90;;;;;;5030845;28;20170;-72
2023/06/05 07:43:24;;;;;;;3.53;2.72;;;15.80;99.90;;;;;;5049640;28;20056;-72
2023/06/05 07:45:50;;;;;;;4.07;2.70;;;15.70;99.90;;;;;;5033943;28;20044;-72
2023/06/05 07:48:16;;;;;;;4.50;3.00;;;;;;;;;;5052218;28;20040;-72
2023/06/05 07:50:41;;;;;;;2.95;2.60;;;15.80;99.90;;;;;;5046520;28;20564;-72
2023/06/05 07:53:07;;;;;;;6.47;3.10;;;;;;;;;;5027776;28;20041;-72
2023/06/05 07:55:33;;;;;;;3.97;2.85;;;;;;;;;;5030220;28;20505;-72
2023/06/05 07:58:00;;;;;;;5.20;2.70;;;;;;;;;;5027201;28;20047;-72
2023/06/05 08:00:26;;;;;;;7.00;2.75;;;15.90;99.90;;;;;;5031144;28;20063;-72
2023/06/05 08:02:53;;;;;;;3.22;2.50;;;;;;;;;;5043205;28;20091;-72
2023/06/05 08:05:19;;;;;;;4.40;2.88;;;16.00;99.90;;;;;;5039851;28;20125;-72
2023/06/05 08:07:45;;;;;;;5.97;3.10;;;16.40;99.90;;;;;;5027326;28;20140;-72
2023/06/05 08:10:11;;;;;;;5.38;3.00;;;;;;;;;;5045005;28;20558;-72
2023/06/05 08:12:37;;;;;;;4.50;2.90;;;16.50;99.90;;;;;;5044571;28;20137;-72
2023/06/05 08:15:03;;;;;;;6.10;3.35;;;;;;;;;;5049768;28;20112;-72
2023/06/05 08:17:29;;;;;;;4.15;2.83;;;;;;;;;;5032355;28;20064;-72
2023/06/05 08:19:55;;;;;;;4.18;3.03;;;16.60;99.90;;;;;;5033631;28;20079;-72
2023/06/05 08:22:22;;;;;;;6.53;3.15;;;;;;;;;;5048552;28;20473;-72
2023/06/05 08:24:49;;;;;;;5.68;2.88;;;16.60;99.90;;;;;;5012804;28;20476;-72
2023/06/05 08:27:17;;;;;;;5.70;4.22;;;16.60;99.90;;;;;;5034723;28;20041;-72
2023/06/05 08:29:43;;;;;;;4.72;2.97;;;;;;;;;;5042049;28;20500;-72
2023/06/05 08:32:09;;;;;;;6.15;4.05;;;;;;;;;;5032695;28;20047;-72
2023/06/05 08:34:35;;;;;;;6.25;2.88;;;;;;;;;;5030884;28;20033;-71
2023/06/05 08:37:02;;;;;;;7.63;3.55;;;;;;;;;;5042635;28;20039;-72
2023/06/05 08:39:31;;;;;;;5.95;3.15;;;;;;;;;;5046386;28;20033;-71
2023/06/05 08:42:03;;;;;;;3.42;2.90;;;16.10;99.90;;;;;;5043385;28;20049;-72
2023/06/05 08:44:29;;;;;;;5.20;3.33;;;15.80;99.90;;;;;;5046189;28;20041;-72
2023/06/05 08:47:03;;;;;;;5.20;3.22;;;16.20;99.90;;;;;;5049033;28;20385;-72
2023/06/05 08:49:30;;;;;;;3.45;2.67;;;16.60;99.90;;;;;;5046989;28;20332;-71
2023/06/05 08:52:04;;;;;;;3.67;2.85;;;16.50;99.90;;;;;;5032508;28;20048;-72
2023/06/05 08:54:36;;;;;;;3.78;2.35;;;16.80;99.90;;;;;;5045096;28;20037;-72
2023/06/05 08:57:03;;;;;;;3.95;2.70;;;17.20;99.90;;;;;;5013138;28;20069;-71
2023/06/05 08:59:29;;;;;;;5.32;3.58;;;17.50;99.90;;;;;;5029639;28;20041;-73
2023/06/05 09:01:56;;;;;;;5.75;3.78;;;17.30;99.90;;;;;;5029183;28;20037;-72
2023/06/05 09:04:23;;;;;;;4.05;2.95;;;17.70;99.90;;;;;;5030560;28;20037;-72
2023/06/05 09:06:53;;;;;;;5.22;2.80;;;17.80;99.90;;;;;;5045317;28;20037;-72
2023/06/05 09:09:20;;;;;;;5.00;3.17;;;;;;;;;;5047588;28;20037;-72
2023/06/05 09:11:46;;;;;;;4.78;3.30;;;17.30;99.90;;;;;;5048236;28;20048;-75
2023/06/05 09:14:12;;;;;;;5.07;2.50;;;17.50;99.90;;;;;;5030230;28;20041;-71
2023/06/05 09:16:42;;;;;;;3.83;2.42;;;17.60;99.90;;;;;;5048287;28;20041;-71
2023/06/05 09:19:08;;;;;;;4.35;2.78;;;17.60;99.90;;;;;;5031493;28;20037;-71
2023/06/05 09:21:34;;;;;;;3.80;2.75;;;17.90;99.90;;;;;;5049792;28;20551;-71
2023/06/05 09:24:09;;;;;;;5.30;3.50;;;17.90;99.90;;;;;;5032964;28;20052;-71
2023/06/05 09:26:50;;;;;;;5.53;3.17;;;16.70;99.90;;;;;;5049880;28;20116;-73
2023/06/05 09:29:27;;;;;;;3.92;2.72;;;17.10;99.90;;;;;;5049883;28;20045;-71
2023/06/05 09:31:55;;;;;;;4.03;2.72;;;17.20;99.90;;;;;;5050066;28;20048;-71
2023/06/05 09:34:32;;;;;;;4.53;2.70;;;17.50;99.90;;;;;;5049870;28;20392;-72
2023/06/05 09:37:02;;;;;;;6.30;3.42;;;17.90;99.90;;;;;;5049875;28;20049;-71
2023/06/05 09:39:30;;;;;;;4.65;3.67;;;17.30;99.90;;;;;;5050678;28;20450;-71
2023/06/05 09:41:57;;;;;;;6.18;3.25;;;17.40;99.90;;;;;;5033201;28;20052;-72
2023/06/05 09:44:24;;;;;;;4.40;3.15;;;17.30;99.90;;;;;;5048852;28;20047;-71
2023/06/05 09:47:15;;;;;;;4.50;3.47;;;17.10;99.90;;;;;;5048838;28;20112;-71
2023/06/05 09:49:40;;;;;;;4.18;2.65;;;;;;;;;;5031925;28;20041;-71
2023/06/05 09:52:11;;;;;;;4.55;2.63;;;17.90;99.90;;;;;;5032079;28;20467;-71
2023/06/05 09:54:42;;;;;;;4.57;3.28;;;17.90;99.90;;;;;;5048810;28;20120;-71
2023/06/05 09:57:09;;;;;;;10.45;3.45;;;17.90;99.90;;;;;;5048944;28;20091;-71
2023/06/05 09:59:45;;;;;;;6.10;3.45;;;17.40;99.90;;;;;;5032828;28;20102;-71
2023/06/05 10:02:15;;;;;;;4.20;3.03;;;17.90;99.90;;;;;;5040184;28;20045;-71
2023/06/05 10:05:04;;;;;;;4.65;3.80;;;18.30;99.90;;;;;;5030979;28;20040;-72
2023/06/05 10:07:36;;;;;;;6.03;2.67;;;18.70;99.90;;;;;;5063897;22;20136;-71
2023/06/05 10:10:02;;;;;;;6.45;3.05;;;17.90;99.90;;;;;;5032953;28;20041;-71
2023/06/05 10:12:30;;;;;;;4.05;2.80;;;18.20;99.90;;;;;;5032836;28;20055;-71
2023/06/05 10:14:57;;;;;;;3.50;2.83;;;18.00;99.90;;;;;;5032595;28;20076;-71
2023/06/05 10:17:23;;;;;;;7.63;3.53;;;18.70;99.90;;;;;;5032659;28;20091;-71
2023/06/05 10:19:50;;;;;;;4.22;2.80;;;18.80;99.90;;;;;;5049174;28;20519;-70
2023/06/05 10:22:18;;;;;;;5.22;2.92;;;18.60;99.90;;;;;;5027693;28;20112;-70
2023/06/05 10:24:52;;;;;;;4.80;3.17;;;19.70;99.90;;;;;;5038995;28;20120;-68
2023/06/05 10:27:36;;;;;;;2.95;2.67;;;18.50;99.90;;;;;;5023913;28;20115;-71
2023/06/05 10:30:17;;;;;;;3.60;2.97;;;18.60;99.90;;;;;;5028682;28;20128;-71
2023/06/05 10:33:20;;;;;;;8.20;3.40;;;18.90;99.90;;;;;;5014471;28;20125;-70
2023/06/05 10:35:52;;;;;;;5.18;3.20;;;18.70;99.90;;;;;;5024795;28;20087;-70
2023/06/05 10:38:25;;;;;;;5.63;2.90;;;18.90;99.90;;;;;;5036918;28;20041;-70
2023/06/05 10:40:55;;;;;;;;;;;19.20;99.90;;;;;;5029570;28;20048;-71
2023/06/05 10:43:47;;;;;;;5.95;3.53;;;18.10;99.90;;;;;;5031938;28;19929;-71
2023/06/05 10:46:34;;;;;;;5.72;3.20;;;18.30;99.90;;;;;;5004482;28;20451;-68
2023/06/05 10:49:29;;;;;;;4.20;2.92;;;18.40;99.90;;;;;;5024608;28;20394;-71
2023/06/05 10:51:58;;;;;;;4.82;3.00;;;19.00;99.90;;;;;;5008010;28;20053;-70
2023/06/05 10:54:24;;;;;;;4.10;2.90;;;20.30;99.90;;;;;;5029054;28;20068;-70
2023/06/05 10:57:03;;;;;;;3.97;2.55;;;18.80;99.90;;;;;;5009075;28;20648;-71
2023/06/05 10:59:31;;;;;;;3.83;2.60;;;19.00;99.90;;;;;;5040900;28;20037;-71
2023/06/05 11:02:14;;;;;;;3.75;2.83;;;19.30;99.90;;;;;;5027088;28;20048;-71
2023/06/05 11:04:46;;;;;;;4.32;2.75;;;19.60;99.90;;;;;;5031087;28;20123;-71
2023/06/05 11:07:22;;;;;;;4.68;2.90;;;19.30;99.90;;;;;;5019445;28;20041;-71
2023/06/05 11:10:05;;;;;;;4.07;2.92;;;19.30;99.90;;;;;;4998700;28;20041;-71
2023/06/05 11:12:40;;;;;;;3.47;2.70;;;19.20;99.90;;;;;;5011618;28;20041;-71
2023/06/05 11:15:08;;;;;;;3.67;2.78;;;19.40;99.90;;;;;;5040540;28;20044;-71
2023/06/05 11:17:36;;;;;;;5.00;2.85;;;19.10;99.90;;;;;;5031461;28;20489;-71
2023/06/05 11:20:07;;;;;;;3.45;2.85;;;19.40;99.90;;;;;;5034381;28;20048;-71
2023/06/05 11:22:33;;;;;;;3.15;2.42;;;19.10;99.90;;;;;;5013093;28;20468;-70
2023/06/05 11:25:17;;;;;;;4.60;3.03;;;19.70;99.90;;;;;;5033887;28;20073;-69
2023/06/05 11:27:47;;;;;;;3.70;2.72;;;19.60;99.90;;;;;;5023517;28;20124;-70
2023/06/05 11:30:15;;;;;;;4.22;2.80;;;19.30;99.90;;;;;;5014957;28;20041;-71
2023/06/05 11:32:41;;;;;;;2.88;2.58;;;19.40;99.90;;;;;;5020701;28;20045;-72
2023/06/05 11:35:11;;;;;;;3.55;2.38;;;19.90;99.90;;;;;;5013054;28;20123;-71
2023/06/05 11:37:39;;;;;;;3.17;2.63;;;20.30;99.90;;;;;;5034619;28;20103;-71
2023/06/05 11:40:09;;;;;;;3.33;3.03;;;20.00;99.90;;;;;;5020982;28;20063;-72
2023/06/05 11:42:38;;;;;;;3.80;2.75;;;20.10;99.90;;;;;;5014676;28;20107;-71
2023/06/05 11:45:14;;;;;;;3.58;2.75;;;19.60;99.90;;;;;;4997703;28;20481;-71
2023/06/05 11:47:40;;;;;;;3.85;2.80;;;19.70;99.90;;;;;;5014562;28;20075;-71
2023/06/05 11:50:14;;;;;;;3.40;2.60;;;19.80;99.90;;;;;;4998789;28;20041;-71
2023/06/05 11:52:40;;;;;;;3.40;2.40;;;20.30;99.90;;;;;;4997938;28;20450;-72
2023/06/05 11:55:19;;;;;;;4.57;2.65;;;21.00;99.90;;;;;;5031411;28;20041;-71
2023/06/05 11:57:49;;;;;;;2.83;2.45;;;20.30;99.90;;;;;;5026892;28;20401;-72
2023/06/05 12:00:22;;;;;;;3.95;2.35;;;21.00;99.90;;;;;;5014834;28;20069;-72
2023/06/05 12:02:48;;;;;;;3.55;2.65;;;20.70;99.90;;;;;;4997431;28;20041;-72
2023/06/05 12:05:14;;;;;;;3.50;2.50;;;19.20;99.90;;;;;;5013652;28;20490;-71
2023/06/05 12:07:39;;;;;;;2.97;2.22;;;19.40;99.90;;;;;;5013968;28;20300;-71
2023/06/05 12:10:07;;;;;;;4.90;2.70;;;18.50;99.90;;;;;;5014392;28;20576;-72
2023/06/05 12:12:33;;;;;;;3.60;2.30;;;19.40;99.90;;;;;;5002285;28;20060;-71
2023/06/05 12:15:18;;;;;;;2.60;2.28;;;20.10;99.90;;;;;;5031965;28;20032;-72
2023/06/05 12:17:51;;;;;;;2.20;2.00;;;19.80;99.90;;;;;;5016610;28;20055;-71
2023/06/05 12:20:17;;;;;;;3.45;2.40;;;20.40;99.90;;;;;;5031184;28;20394;-72
2023/06/05 12:22:43;;;;;;;3.38;2.70;;;20.50;99.90;;;;;;5031242;28;20041;-72
2023/06/05 12:25:22;;;;;;;3.28;2.42;;;19.60;99.90;;;;;;5027909;28;20033;-71
2023/06/05 12:27:48;;;;;;;3.70;2.58;;;20.00;99.90;;;;;;5033678;28;20040;-71
2023/06/05 12:30:16;;;;;;;3.53;2.58;;;20.70;99.90;;;;;;5035501;28;20085;-71
2023/06/05 12:32:43;;;;;;;2.80;1.73;;;20.60;99.90;;;;;;5029786;28;20045;-70
2023/06/05 12:35:23;;;;;;;2.95;1.90;;;20.70;99.90;;;;;;5016385;28;20032;-71
2023/06/05 12:37:49;;;;;;;2.50;1.90;;;20.00;99.90;;;;;;5016040;28;20033;-71
2023/06/05 12:40:20;;;;;;;3.75;2.15;;;20.70;99.90;;;;;;5013898;28;20048;-71
2023/06/05 12:42:47;;;;;;;3.00;2.47;;;20.30;99.90;;;;;;5031471;28;20033;-71
2023/06/05 12:45:14;;;;;;;3.40;2.17;;;20.20;99.90;;;;;;5031387;28;20090;-71
2023/06/05 12:47:41;;;;;;;4.13;2.58;;;20.80;99.90;;;;;;5032174;28;20067;-71
2023/06/05 12:50:11;;;;;;;3.15;2.45;;;20.10;99.90;;;;;;5014937;28;20500;-71
2023/06/05 12:52:38;;;;;;;5.15;2.67;;;19.30;99.90;;;;;;5013330;28;20513;-72
2023/06/05 12:55:04;;;;;;;3.38;2.58;;;19.40;99.90;;;;;;5012462;28;20509;-71
2023/06/05 12:57:31;;;;;;;2.95;2.10;;;20.10;99.90;;;;;;5012765;28;20112;-71
2023/06/05 12:59:57;;;;;;;4.70;2.47;;;20.70;99.90;;;;;;4996764;28;20048;-71
2023/06/05 13:02:23;;;;;;;4.00;2.70;;;21.40;99.90;;;;;;5012994;28;20091;-72
2023/06/05 13:04:50;;;;;;;4.22;2.80;;;19.90;99.90;;;;;;4996653;28;20033;-72
2023/06/05 13:07:16;;;;;;;3.38;2.72;;;19.50;99.90;;;;;;5013406;28;20505;-72
2023/06/05 13:09:42;;;;;;;2.97;2.67;;;19.60;99.90;;;;;;5013543;28;20052;-72
2023/06/05 13:12:08;;;;;;;2.88;2.45;;;19.90;99.90;;;;;;4997388;28;20033;-72
2023/06/05 13:14:34;;;;;;;3.33;2.95;;;19.80;99.90;;;;;;4996530;28;20091;-72
2023/06/05 13:17:00;;;;;;;7.85;3.17;;;19.40;99.90;;;;;;5011150;28;20053;-72
2023/06/05 13:19:26;;;;;;;3.55;2.33;;;19.30;99.90;;;;;;5019504;28;20041;-72
2023/06/05 13:21:53;;;;;;;4.35;2.80;;;20.10;99.90;;;;;;5016532;28;20045;-72